1FD3 weather

Jfk Medical Center Heliport
Atlantis, Florida, United States

Public forecast

Using degrees Fahrenheit for public forecast. Weather courtesy of forecast.io.

METAR (pilot weather report)

Closest report is Palm Beach International Airport, 5.0 nm (9.3 km) N. Retrieved 2019/09/21 10:53 UTC (1 hour ago):

KPBI 211053Z 05016G22KT 10SM -RA SCT028 BKN055 27/21 A3007 RMK AO2 RAB35 SLP182 P0000 T02670211 $

TAF (pilot weather forecast)

Closest forecast is Palm Beach International Airport, 5.0 nm (9.3 km) N. Retrieved 2019/09/21 06:55 UTC (5 hours ago):

TAF KPBI 210522Z 2106/2206 07015G25KT P6SM VCSH SCT035 SCT090 FM211000 08020G30KT P6SM VCSH SCT025 BKN050